Time;durP1;ratioP1;P1;durP2;ratioP2;P2;SDS_P1;SDS_P2;PMS_P1;PMS_P2;Temp;Humidity;BMP_temperature;BMP_pressure;BME280_temperature;BME280_humidity;BME280_pressure;Samples;Min_cycle;Max_cycle;Signal;HPM_P1;HPM_P2
2022/04/10 00:02:11;;;;;;;5.72;4.10;;;;;;;;;;5033531;28;20048;-72
2022/04/10 00:04:37;;;;;;;5.15;4.13;;;;;;;;;;5033391;28;20116;-72
2022/04/10 00:07:02;;;;;;;7.32;5.28;;;;;;;;;;5033088;28;20025;-72
2022/04/10 00:09:28;;;;;;;5.88;4.30;;;;;;;;;;5033072;28;20026;-72
2022/04/10 00:11:53;;;;;;;7.80;4.68;;;;;;;;;;5033197;28;20030;-72
2022/04/10 00:14:18;;;;;;;6.32;4.95;;;;;;;;;;5031904;28;20028;-72
2022/04/10 00:16:44;;;;;;;7.00;5.03;;;;;;;;;;5033199;28;20443;-72
2022/04/10 00:19:09;;;;;;;6.78;5.03;;;;;;;;;;5032952;28;20029;-72
2022/04/10 00:21:34;;;;;;;7.63;5.40;;;;;;;;;;5033342;28;20034;-72
2022/04/10 00:24:00;;;;;;;6.43;5.50;;;;;;;;;;5033003;28;20026;-72
2022/04/10 00:26:25;;;;;;;9.02;5.53;;;;;;;;;;5032684;28;20022;-72
2022/04/10 00:28:54;;;;;;;11.00;5.10;;;;;;;;;;5032566;28;20101;-72
2022/04/10 00:31:19;;;;;;;7.70;5.50;;;;;;;;;;5033025;28;20032;-72
2022/04/10 00:33:44;;;;;;;7.40;4.95;;;;;;;;;;5032786;28;20037;-72
2022/04/10 00:36:10;;;;;;;9.32;5.63;;;;;;;;;;5032655;28;20029;-72
2022/04/10 00:38:35;;;;;;;7.65;5.53;;;;;;;;;;5032477;28;20080;-72
2022/04/10 00:41:01;;;;;;;7.78;5.25;;;;;;;;;;5032701;28;20080;-72
2022/04/10 00:43:32;;;;;;;8.23;4.95;;;;;;;;;;5032578;28;20025;-72
2022/04/10 00:45:58;;;;;;;7.93;5.88;;;;;;;;;;5032697;28;20033;-72
2022/04/10 00:48:23;;;;;;;8.85;5.63;;;;;;;;;;5032163;28;20437;-72
2022/04/10 00:53:34;;;;;;;8.15;5.20;;;;;;;;;;5032858;28;20442;-72
2022/04/10 00:56:00;;;;;;;7.78;5.65;;;;;;;;;;5032687;28;20052;-72
2022/04/10 00:58:25;;;;;;;9.00;5.60;;;;;;;;;;5032505;28;20064;-72
2022/04/10 01:00:51;;;;;;;7.95;4.93;;;;;;;;;;5032420;28;20029;-72
2022/04/10 01:03:16;;;;;;;8.48;4.65;;;;;;;;;;5031651;28;20386;-72
2022/04/10 01:05:45;;;;;;;8.07;5.25;;;;;;;;;;5032400;28;20344;-72
2022/04/10 01:08:10;;;;;;;7.85;5.00;;;;;;;;;;5031766;28;20021;-72
2022/04/10 01:10:35;;;;;;;8.02;4.93;;;;;;;;;;5032155;28;20029;-72
2022/04/10 01:13:01;;;;;;;7.28;4.72;;;;;;;;;;5032022;28;20104;-72
2022/04/10 01:15:27;;;;;;;7.22;4.88;;;;;;;;;;5032114;28;20365;-72
2022/04/10 01:17:53;;;;;;;7.88;4.80;;;;;;;;;;5031739;28;20029;-72
2022/04/10 01:20:19;;;;;;;8.43;5.72;;;;;;;;;;5031884;28;20029;-72
2022/04/10 01:22:46;;;;;;;8.18;5.25;;;;;;;;;;5031909;28;20036;-72
2022/04/10 01:25:11;;;;;;;10.13;4.95;;;;;;;;;;5032130;28;20471;-72
2022/04/10 01:27:39;;;;;;;6.63;5.47;;;;;;;;;;5031758;28;20036;-72
2022/04/10 01:30:07;;;;;;;8.23;5.40;;;;;;;;;;5031684;28;20030;-72
2022/04/10 01:32:33;;;;;;;9.40;5.38;;;;;;;;;;5031548;28;20021;-72
2022/04/10 01:35:01;;;;;;;7.45;5.18;;;;;;;;;;5031719;28;20066;-72
2022/04/10 01:37:27;;;;;;;11.52;5.97;;;;;;;;;;5031446;28;20025;-72
2022/04/10 01:39:53;;;;;;;7.68;5.43;;;;;;;;;;5031417;28;20037;-72
2022/04/10 01:42:18;;;;;;;6.95;5.25;;;;;;;;;;5031588;28;20029;-72
2022/04/10 01:44:44;;;;;;;10.57;5.55;;;;;;;;;;5031484;28;20071;-72
2022/04/10 01:47:09;;;;;;;9.32;6.07;;;;;;;;;;5031212;28;20021;-72
2022/04/10 01:49:35;;;;;;;11.73;6.82;;;;;;;;;;5031298;28;20108;-72
2022/04/10 01:52:00;;;;;;;10.43;6.10;;;;;;;;;;5031885;28;20652;-72
2022/04/10 01:54:26;;;;;;;9.07;6.18;;;;;;;;;;5031343;28;20022;-72
2022/04/10 01:56:51;;;;;;;13.45;7.00;;;;;;;;;;5031270;28;20032;-72
2022/04/10 01:59:16;;;;;;;9.65;6.32;;;;;;;;;;5030960;28;20025;-72
2022/04/10 02:01:42;;;;;;;12.07;6.63;;;;;;;;;;5031098;28;20025;-72
2022/04/10 02:04:07;;;;;;;10.02;5.90;;;;;;;;;;5031125;28;20029;-72
2022/04/10 02:06:35;;;;;;;10.98;6.15;;;;;;;;;;5031069;28;20025;-71
2022/04/10 02:09:06;;;;;;;11.60;6.25;;;;;;;;;;5030828;28;20048;-71
2022/04/10 02:11:31;;;;;;;13.05;6.38;;;;;;;;;;5031097;28;20393;-72
2022/04/10 02:13:56;;;;;;;9.25;6.35;;;;;;;;;;5030156;28;20026;-72
2022/04/10 02:16:21;;;;;;;9.73;7.22;;;;;;;;;;5030655;28;20079;-71
2022/04/10 02:18:47;;;;;;;9.73;5.97;;;;;;;;;;5030754;28;20021;-72
2022/04/10 02:21:13;;;;;;;9.02;6.00;;;;;;;;;;5030842;28;20025;-71
2022/04/10 02:23:39;;;;;;;10.95;6.30;;;;;;;;;;5030828;28;20045;-72
2022/04/10 02:26:05;;;;;;;11.30;6.30;;;;;;;;;;5031096;28;20028;-72
2022/04/10 02:28:30;;;;;;;10.27;6.82;;;;;;;;;;5059432;22;20041;-72
2022/04/10 02:30:56;;;;;;;10.10;6.80;;;;;;;;;;5050529;28;20580;-74
2022/04/10 02:33:21;;;;;;;11.85;6.10;;;;;;;;;;5050400;28;20036;-74
2022/04/10 02:35:46;;;;;;;9.55;6.53;;;;;;;;;;5050778;28;20052;-71
2022/04/10 02:38:12;;;;;;;10.55;6.35;;;;;;;;;;5050208;28;20387;-75
2022/04/10 02:40:37;;;;;;;8.63;5.28;;;;;;;;;;5050432;28;20067;-73
2022/04/10 02:43:03;;;;;;;8.80;6.10;;;;;;;;;;5050442;28;20025;-73
2022/04/10 02:45:28;;;;;;;11.05;6.05;;;;;;;;;;5050834;28;20068;-75
2022/04/10 02:47:54;;;;;;;8.93;6.15;;;;;;;;;;5050283;28;20060;-75
2022/04/10 02:50:19;;;;;;;9.25;6.00;;;;;;;;;;5050267;28;20040;-74
2022/04/10 02:52:44;;;;;;;7.85;5.55;;;;;;;;;;5050351;28;20033;-75
2022/04/10 02:55:10;;;;;;;9.52;5.75;;;;;;;;;;5050138;28;20025;-74
2022/04/10 02:57:37;;;;;;;8.73;5.80;;;;;;;;;;5050168;28;20100;-74
2022/04/10 03:00:04;;;;;;;9.27;5.80;;;;;;;;;;5050203;28;20155;-74
2022/04/10 03:02:29;;;;;;;9.68;6.13;;;;;;;;;;5050093;28;20028;-74
2022/04/10 03:04:55;;;;;;;9.85;6.50;;;;;;;;;;5050005;28;20040;-74
2022/04/10 03:07:20;;;;;;;9.05;6.32;;;;;;;;;;5049901;28;20033;-74
2022/04/10 03:09:45;;;;;;;11.80;6.60;;;;;;;;;;5050091;28;20035;-75
2022/04/10 03:12:11;;;;;;;12.57;7.22;;;;;;;;;;5050014;28;20367;-74
2022/04/10 03:14:36;;;;;;;11.00;6.20;;;;;;;;;;5049899;28;20033;-74
2022/04/10 03:17:02;;;;;;;9.48;6.47;;;;;;;;;;5049953;28;20056;-75
2022/04/10 03:19:28;;;;;;;12.15;6.93;;;;;;;;;;5049769;28;20033;-75
2022/04/10 03:21:54;;;;;;;9.75;6.60;;;;;;;;;;5049983;28;20080;-74
2022/04/10 03:24:19;;;;;;;11.20;6.65;;;;;;;;;;5050133;28;20040;-74
2022/04/10 03:26:44;;;;;;;12.45;7.22;;;;;;;;;;5052545;28;20035;-74
2022/04/10 03:29:11;;;;;;;10.35;7.03;;;;;;;;;;5053554;28;20470;-75
2022/04/10 03:31:37;;;;;;;11.00;7.07;;;;;;;;;;5053911;28;20401;-75
2022/04/10 03:34:02;;;;;;;12.20;6.90;;;;;;;;;;5053833;28;20033;-73
2022/04/10 03:36:28;;;;;;;9.68;6.63;;;;;;;;;;5054147;28;20052;-74
2022/04/10 03:38:53;;;;;;;10.52;7.13;;;;;;;;;;5053561;28;20031;-75
2022/04/10 03:41:18;;;;;;;10.88;7.20;;;;;;;;;;5054093;28;20429;-75
2022/04/10 03:43:44;;;;;;;10.35;7.10;;;;;;;;;;5053898;28;20033;-75
2022/04/10 03:46:09;;;;;;;9.85;7.22;;;;;;;;;;5053706;28;20021;-73
2022/04/10 03:48:34;;;;;;;12.82;7.75;;;;;;;;;;5053301;28;20486;-75
2022/04/10 03:50:59;;;;;;;11.02;7.57;;;;;;;;;;5053591;28;20029;-74
2022/04/10 03:53:25;;;;;;;13.73;7.35;;;;;;;;;;5053573;28;20053;-75
2022/04/10 03:55:51;;;;;;;12.13;6.85;;;;;;;;;;5053875;28;20027;-75
2022/04/10 03:58:16;;;;;;;9.55;6.72;;;;;;;;;;5053121;28;20028;-75
2022/04/10 04:00:41;;;;;;;12.93;7.22;;;;;;;;;;5053321;28;20387;-73
2022/04/10 04:03:07;;;;;;;11.75;7.18;;;;;;;;;;5053392;28;20029;-74
2022/04/10 04:05:33;;;;;;;11.85;7.45;;;;;;;;;;5053219;28;20025;-74
2022/04/10 04:07:58;;;;;;;10.45;6.78;;;;;;;;;;5052860;28;20099;-74
2022/04/10 04:10:24;;;;;;;13.73;7.32;;;;;;;;;;5053666;28;20085;-75
2022/04/10 04:12:49;;;;;;;8.77;6.88;;;;;;;;;;5053095;28;20033;-74
2022/04/10 04:15:15;;;;;;;11.38;7.75;;;;;;;;;;5053135;28;20058;-75
2022/04/10 04:17:40;;;;;;;9.68;6.60;;;;;;;;;;5053034;28;20492;-74
2022/04/10 04:20:07;;;;;;;10.85;6.40;;;;;;;;;;5052853;28;20041;-74
2022/04/10 04:22:36;;;;;;;10.18;6.90;;;;;;;;;;5051692;28;20297;-74
2022/04/10 04:25:03;;;;;;;9.52;6.88;;;;;;;;;;5053001;28;20059;-75
2022/04/10 04:27:29;;;;;;;9.63;6.78;;;;;;;;;;5052634;28;20033;-74
2022/04/10 04:29:54;;;;;;;8.80;6.40;;;;;;;;;;5052691;28;20028;-75
2022/04/10 04:32:19;;;;;;;11.65;7.25;;;;;;;;;;5053340;28;20035;-75
2022/04/10 04:34:47;;;;;;;11.40;7.47;;;;;;;;;;5052861;28;20102;-73
2022/04/10 04:37:12;;;;;;;11.30;7.50;;;;;;;;;;5051959;28;20025;-75
2022/04/10 04:39:38;;;;;;;15.13;7.85;;;;;;;;;;5052544;28;20028;-74
2022/04/10 04:42:04;;;;;;;10.80;7.25;;;;;;;;;;5052626;28;20033;-75
2022/04/10 04:44:31;;;;;;;11.50;7.00;;;;;;;;;;5052566;28;20403;-73
2022/04/10 04:46:57;;;;;;;10.73;7.20;;;;;;;;;;5052885;28;20036;-74
2022/04/10 04:49:23;;;;;;;10.75;7.75;;;;;;;;;;5052608;28;20029;-74
2022/04/10 04:51:49;;;;;;;11.95;7.32;;;;;;;;;;5052629;28;20275;-74
2022/04/10 04:54:14;;;;;;;10.23;6.60;;;;;;;;;;5052430;28;20032;-74
2022/04/10 04:56:39;;;;;;;8.50;6.50;;;;;;;;;;5052130;28;20027;-74
2022/04/10 04:59:05;;;;;;;17.33;7.68;;;;;;;;;;5052179;28;20025;-75
2022/04/10 05:01:30;;;;;;;9.30;7.07;;;;;;;;;;5052425;28;20421;-75
2022/04/10 05:03:56;;;;;;;10.20;7.60;;;;;;;;;;5052267;28;20032;-74
2022/04/10 05:06:21;;;;;;;11.20;7.25;;;;;;;;;;5052117;28;20029;-75
2022/04/10 05:08:46;;;;;;;10.57;6.68;;;;;;;;;;5051759;28;20037;-75
2022/04/10 05:11:13;;;;;;;10.93;6.93;;;;;;;;;;5051997;28;20061;-74
2022/04/10 05:13:39;;;;;;;9.15;6.68;;;;;;;;;;5052101;28;20100;-73
2022/04/10 05:16:05;;;;;;;11.52;7.38;;;;;;;;;;5051990;28;20375;-75
2022/04/10 05:18:30;;;;;;;9.77;6.82;;;;;;;;;;5051763;28;20048;-73
2022/04/10 05:20:55;;;;;;;9.93;7.28;;;;;;;;;;5052020;28;20111;-74
2022/04/10 05:23:21;;;;;;;12.32;7.75;;;;;;;;;;5051916;28;20025;-74
2022/04/10 05:25:47;;;;;;;11.00;7.65;;;;;;;;;;5052223;28;20048;-75
2022/04/10 05:28:14;;;;;;;10.20;7.07;;;;;;;;;;5051448;28;20035;-74
2022/04/10 05:30:40;;;;;;;13.45;7.45;;;;;;;;;;5052143;28;20425;-74
2022/04/10 05:33:06;;;;;;;12.18;8.32;;;;;;;;;;5052002;28;20086;-74
2022/04/10 05:35:31;;;;;;;10.60;7.78;;;;;;;;;;5051679;28;20116;-74
2022/04/10 05:37:56;;;;;;;11.35;7.47;;;;;;;;;;5051371;28;20044;-71
2022/04/10 05:40:22;;;;;;;11.35;7.68;;;;;;;;;;5051339;28;20040;-74
2022/04/10 05:42:48;;;;;;;11.05;7.70;;;;;;;;;;5051581;28;20100;-73
2022/04/10 05:45:14;;;;;;;11.80;7.80;;;;;;;;;;5051417;28;20033;-74
2022/04/10 05:47:41;;;;;;;12.65;7.85;;;;;;;;;;5051312;28;20024;-75
2022/04/10 05:50:08;;;;;;;13.88;8.95;;;;;;;;;;5051144;28;20608;-74
2022/04/10 05:52:44;;;;;;;14.35;8.65;;;;;;;;;;5051115;28;20029;-75
2022/04/10 05:55:10;;;;;;;11.55;7.43;;;;;;;;;;5050864;28;20120;-74
2022/04/10 05:57:36;;;;;;;14.90;7.88;;;;;;;;;;5050967;28;20017;-74
2022/04/10 06:00:07;;;;;;;9.73;7.65;;;;;;;;;;5050790;28;20025;-74
2022/04/10 06:02:33;;;;;;;10.05;7.93;;;;;;;;;;5050847;28;20039;-74
2022/04/10 06:04:59;;;;;;;12.05;8.75;;;;;;;;;;5050917;28;20033;-75
2022/04/10 06:07:25;;;;;;;11.90;8.43;;;;;;;;;;5050495;28;20079;-74
2022/04/10 06:09:50;;;;;;;10.73;7.63;;;;;;;;;;5050680;28;20045;-75
2022/04/10 06:12:15;;;;;;;8.93;6.50;;;;;;;;;;5051160;28;20056;-75
2022/04/10 06:14:41;;;;;;;9.48;6.65;;;;;;;;;;5050757;28;20028;-74
2022/04/10 06:17:07;;;;;;;11.65;7.70;;;;;;;;;;5050705;28;20110;-75
2022/04/10 06:19:35;;;;;;;11.35;6.93;;;;;;;;;;5050706;28;20029;-74
2022/04/10 06:22:01;;;;;;;12.15;7.55;;;;;;;;;;5050565;28;20032;-73
2022/04/10 06:24:27;;;;;;;12.27;7.95;;;;;;;;;;5050904;28;20108;-75
2022/04/10 06:26:53;;;;;;;9.75;7.45;;;;;;;;;;5049668;28;20435;-75
2022/04/10 06:29:19;;;;;;;9.43;7.03;;;;;;;;;;5050490;28;20024;-75
2022/04/10 06:31:44;;;;;;;11.25;7.47;;;;;;;;;;5050622;28;20025;-75
2022/04/10 06:34:09;;;;;;;11.73;7.50;;;;;;;;;;5050532;28;20474;-74
2022/04/10 06:36:35;;;;;;;12.27;7.30;;;;;;;;;;5050836;28;20389;-74
2022/04/10 06:39:00;;;;;;;11.43;7.55;;;;;;;;;;5050281;28;20459;-74
2022/04/10 06:41:25;;;;;;;11.02;7.85;;;;;;;;;;5050681;28;20029;-75
2022/04/10 06:43:51;;;;;;;10.82;7.18;;;;;;;;;;5050941;28;20027;-74
2022/04/10 06:46:16;;;;;;;10.82;7.35;;;;;;;;;;5050269;28;20083;-72
2022/04/10 06:48:41;;;;;;;10.70;7.80;;;;;;;;;;5049978;28;20027;-72
2022/04/10 06:51:07;;;;;;;9.65;6.85;;;;;;;;;;5050087;28;20120;-74
2022/04/10 06:53:33;;;;;;;12.48;7.82;;;;;;;;;;5048809;28;20029;-74
2022/04/10 06:55:58;;;;;;;12.13;7.55;;;;;;;;;;5050150;28;20025;-74
2022/04/10 06:58:23;;;;;;;10.43;6.88;;;;;;;;;;5049862;28;20028;-74
2022/04/10 07:00:49;;;;;;;11.77;6.80;;;;;;;;;;5049819;28;20129;-72
2022/04/10 07:03:14;;;;;;;10.02;7.55;;;;;;;;;;5049987;28;20017;-72
2022/04/10 07:05:40;;;;;;;8.48;6.60;;;;;;;;;;5049971;28;20021;-72
2022/04/10 07:08:06;;;;;;;10.02;7.00;;;;;;;;;;5049376;28;20017;-72
2022/04/10 07:10:31;;;;;;;9.00;6.82;;;;;;;;;;5050416;28;20052;-75
2022/04/10 07:12:57;;;;;;;8.70;6.45;;;;;;;;;;5049920;28;20497;-71
2022/04/10 07:15:22;;;;;;;9.32;6.57;;;;;;;;;;5049953;28;20120;-72
2022/04/10 07:17:47;;;;;;;8.13;6.10;;;;;;;;;;5049884;28;20025;-72
2022/04/10 07:20:13;;;;;;;8.35;6.18;;;;;;;;;;5049896;28;20025;-71
2022/04/10 07:25:23;;;;;;;9.65;6.75;;;;;;;;;;5050313;28;20485;-72
2022/04/10 07:27:48;;;;;;;10.55;7.25;;;;;;;;;;5049470;28;20029;-72
2022/04/10 07:30:13;;;;;;;9.98;7.32;;;;;;;;;;5049599;28;20120;-72
2022/04/10 07:32:39;;;;;;;7.68;6.40;;;;;;;;;;5047863;28;20191;-74
2022/04/10 07:35:05;;;;;;;14.88;8.25;;;;;;;;;;5048345;28;20032;-72
2022/04/10 07:37:31;;;;;;;8.80;6.70;;;;;;;;;;5049665;28;20020;-72
2022/04/10 07:39:56;;;;;;;10.18;6.72;;;;;;;;;;5049029;28;20386;-72
2022/04/10 07:42:22;;;;;;;10.38;6.60;;;;;;;;;;5049092;28;20032;-72
2022/04/10 07:44:47;;;;;;;10.55;7.45;;;;;;;;;;5049583;28;20032;-71
2022/04/10 07:47:28;;;;;;;9.50;6.90;;;;;;;;;;5049537;28;20057;-72
2022/04/10 07:49:54;;;;;;;11.05;7.93;;;;;;;;;;5048099;28;20029;-72
2022/04/10 07:52:20;;;;;;;9.48;6.40;;;;;;;;;;5049526;28;20021;-74
2022/04/10 07:54:46;;;;;;;8.40;6.47;;;;;;;;;;5049797;28;20625;-74
2022/04/10 07:57:11;;;;;;;9.52;6.32;;;;;;;;;;5049521;28;20035;-74
2022/04/10 07:59:37;;;;;;;9.38;6.60;;;;;;;;;;5049323;28;20494;-73
2022/04/10 08:02:03;;;;;;;7.43;5.97;;;;;;;;;;5049210;28;20111;-73
2022/04/10 08:04:28;;;;;;;8.55;6.18;;;;;;;;;;5049526;28;20024;-74
2022/04/10 08:06:54;;;;;;;7.95;6.43;;;;;;;;;;5045623;28;20052;-74
2022/04/10 08:09:19;;;;;;;6.93;5.80;;;;;;;;;;5045249;28;20029;-74
2022/04/10 08:11:45;;;;;;;8.27;6.05;;;;;;;;;;5046343;28;20052;-73
2022/04/10 08:14:10;;;;;;;9.27;6.28;;;;;;;;;;5048977;28;20021;-74
2022/04/10 08:16:35;;;;;;;8.25;5.40;;;;;;;;;;5049806;28;20451;-72
2022/04/10 08:19:00;;;;;;;7.22;6.10;;;;;;;;;;5047988;28;20386;-73
2022/04/10 08:21:26;;;;;;;9.63;5.65;;;;;;;;;;5049007;28;20039;-74
2022/04/10 08:23:51;;;;;;;7.43;5.70;;;;;;;;;;5049836;28;20017;-72
2022/04/10 08:26:16;;;;;;;7.55;5.70;;;;;;;;;;5048986;28;20475;-72
2022/04/10 08:28:42;;;;;;;8.48;5.35;;;;;;;;;;5049460;28;20029;-73
2022/04/10 08:31:07;;;;;;;10.70;5.40;;;;;;;;;;5048145;28;20017;-73
2022/04/10 08:33:32;;;;;;;7.40;5.25;;;;;;;;;;5049012;28;20032;-73
2022/04/10 08:35:58;;;;;;;8.25;5.57;;;;;;;;;;5049781;28;20398;-75
2022/04/10 08:38:23;;;;;;;7.22;5.53;;;;;;;;;;5047712;28;20111;-72
2022/04/10 08:40:52;;;;;;;7.03;5.70;;;;;;;;;;5047454;28;20032;-72
2022/04/10 08:43:18;;;;;;;7.68;4.93;;;;;;;;;;5049705;28;20378;-74
2022/04/10 08:45:45;;;;;;;6.97;5.22;;;;;;;;;;5048423;28;20027;-73
2022/04/10 08:48:11;;;;;;;7.57;5.22;;;;;;;;;;5048380;28;20524;-72
2022/04/10 08:50:37;;;;;;;9.13;5.80;;;;;;;;;;5049122;28;20068;-74
2022/04/10 08:53:04;;;;;;;9.18;5.32;;;;;;;;;;5048638;28;20479;-72
2022/04/10 08:55:29;;;;;;;10.05;5.50;;;;;;;;;;5048782;28;20394;-72
2022/04/10 08:57:55;;;;;;;6.78;4.40;;;;;;;;;;5048628;28;20025;-72
2022/04/10 09:00:22;;;;;;;7.90;5.20;;;;;;;;;;5048639;28;20429;-73
2022/04/10 09:02:52;;;;;;;6.60;4.88;;;;;;;;;;5048876;28;20039;-73
2022/04/10 09:05:22;;;;;;;7.13;4.75;;;;;;;;;;5049258;28;20029;-73
2022/04/10 09:08:11;;;;;;;9.80;6.32;;;;;;;;;;5048256;28;20025;-71
2022/04/10 09:11:00;;;;;;;7.38;4.97;;;;;;;;;;5049093;28;20020;-72
2022/04/10 09:13:38;;;;;;;6.63;4.75;;;;;;;;;;5048293;28;20021;-73
2022/04/10 09:16:14;;;;;;;7.60;4.38;;;;;;;;;;5048374;28;20442;-74
2022/04/10 09:18:51;;;;;;;8.60;4.70;;;;;;;;;;5047916;28;20029;-72
2022/04/10 09:21:21;;;;;;;9.45;4.70;;;;;;;;;;5048371;28;20029;-72
2022/04/10 09:23:55;;;;;;;7.00;4.32;;;;;;;;;;5048361;28;20017;-71
2022/04/10 09:26:21;;;;;;;8.05;4.43;;;;;;;;;;5048725;28;20033;-72
2022/04/10 09:28:48;;;;;;;7.28;4.63;;;;;;;;;;5047508;28;20440;-72
2022/04/10 09:31:29;;;;;;;7.78;4.40;;;;;;;;;;5048544;28;20032;-72
2022/04/10 09:33:56;;;;;;;6.43;3.70;;;;;;;;;;5047930;28;20560;-74
2022/04/10 09:36:34;;;;;;;8.50;3.97;;;;;;;;;;5048561;28;20048;-73
2022/04/10 09:39:02;;;;;;;7.63;4.20;;;;;;;;;;5048137;28;20522;-73
2022/04/10 09:41:27;;;;;;;5.50;3.88;;;;;;;;;;5047470;28;20033;-72
2022/04/10 09:43:53;;;;;;;6.85;4.05;;;;;;;;;;5048359;28;20051;-74
2022/04/10 09:46:18;;;;;;;7.63;4.18;;;;;;;;;;5048115;28;20309;-72
2022/04/10 09:48:43;;;;;;;6.85;3.70;;;;;;;;;;5047312;28;20029;-73
2022/04/10 09:51:11;;;;;;;7.22;4.30;;;;;;;;;;5048370;28;20111;-74
2022/04/10 09:53:37;;;;;;;7.63;3.92;;;;;;;;;;5047821;28;20029;-73
2022/04/10 09:56:04;;;;;;;8.73;4.57;;;;;;;;;;5047798;28;20116;-73
2022/04/10 09:58:31;;;;;;;7.55;4.10;;;;;;;;;;5047887;28;20644;-72
2022/04/10 10:00:58;;;;;;;7.90;3.67;;;;;;;;;;5062108;28;20051;-72
2022/04/10 10:03:25;;;;;;;6.95;3.58;;;;;;;;;;5054994;28;20360;-72
2022/04/10 10:05:52;;;;;;;4.53;3.80;;;;;;;;;;5048658;28;20435;-73
2022/04/10 10:08:18;;;;;;;7.70;3.47;;;;;;;;;;5047460;28;20021;-72
2022/04/10 10:10:44;;;;;;;5.35;3.22;;;;;;;;;;5047724;28;20029;-74
2022/04/10 10:13:10;;;;;;;7.38;3.35;;;;;;;;;;5047741;28;20807;-72
2022/04/10 10:15:36;;;;;;;6.97;3.65;;;;;;;;;;5047088;28;20028;-73
2022/04/10 10:18:04;;;;;;;9.10;4.00;;;;;;;;;;5047546;28;20028;-73
2022/04/10 10:20:30;;;;;;;7.38;3.60;;;;;;;;;;5047704;28;20035;-73
2022/04/10 10:22:57;;;;;;;7.45;3.47;;;;;;;;;;5047091;28;20371;-73
2022/04/10 10:25:37;;;;;;;5.22;3.42;;;;;;;;;;5047747;28;20052;-74
2022/04/10 10:28:09;;;;;;;9.55;5.75;;;;;;;;;;5047006;28;20043;-74
2022/04/10 10:30:55;;;;;;;4.78;3.10;;;;;;;;;;5047573;28;20060;-72
2022/04/10 10:33:23;;;;;;;5.10;3.33;;;;;;;;;;5047127;28;20027;-72
2022/04/10 10:35:51;;;;;;;6.60;3.47;;;;;;;;;;5046375;28;20403;-73
2022/04/10 10:38:25;;;;;;;9.32;3.08;;;;;;;;;;5046591;28;20065;-71
2022/04/10 10:40:52;;;;;;;4.65;3.30;;;;;;;;;;5047030;28;20020;-74
2022/04/10 10:43:24;;;;;;;6.22;3.20;;;;;;;;;;5047329;28;20047;-73
2022/04/10 10:45:52;;;;;;;6.43;3.58;;;;;;;;;;5047443;28;20028;-73
2022/04/10 10:48:32;;;;;;;8.40;3.85;;;;;;;;;;5046596;28;20025;-73
2022/04/10 10:51:22;;;;;;;6.95;3.58;;;;;;;;;;5046719;28;20072;-73
2022/04/10 10:53:52;;;;;;;6.80;3.03;;;;;;;;;;5047146;28;20074;-72
2022/04/10 10:56:17;;;;;;;7.22;3.35;;;;;;;;;;5046834;28;20043;-73
2022/04/10 10:58:43;;;;;;;5.43;2.60;;;;;;;;;;5046451;28;20021;-72
2022/04/10 11:01:14;;;;;;;5.68;3.10;;;;;;;;;;5046918;28;20257;-72
2022/04/10 11:04:02;;;;;;;9.83;3.83;;;;;;;;;;5047117;28;20114;-73
2022/04/10 11:06:29;;;;;;;6.13;3.13;;;;;;;;;;5046745;28;20066;-73
2022/04/10 11:08:55;;;;;;;11.13;7.57;;;;;;;;;;5047372;28;20016;-73
2022/04/10 11:11:20;;;;;;;5.97;3.83;;;;;;;;;;5048416;28;20071;-73
2022/04/10 11:13:48;;;;;;;4.60;2.75;;;;;;;;;;5049352;28;20510;-75
2022/04/10 11:16:14;;;;;;;5.15;3.10;;;;;;;;;;5048275;28;20025;-73
2022/04/10 11:18:49;;;;;;;4.72;2.60;;;;;;;;;;5048310;28;20471;-73
2022/04/10 11:21:19;;;;;;;6.03;3.05;;;;;;;;;;5047250;28;20056;-71
2022/04/10 11:23:45;;;;;;;7.35;2.97;;;;;;;;;;5049458;28;20093;-72
2022/04/10 11:26:16;;;;;;;5.93;2.80;;;;;;;;;;5048968;28;20024;-72
2022/04/10 11:29:04;;;;;;;7.00;2.88;;;;;;;;;;5048820;28;20025;-72
2022/04/10 11:31:33;;;;;;;5.38;2.90;;;;;;;;;;5049511;28;20104;-72
2022/04/10 11:34:08;;;;;;;5.90;2.85;;;;;;;;;;5050206;28;20386;-74
2022/04/10 11:36:55;;;;;;;5.38;2.38;;;;;;;;;;5049582;28;20025;-74
2022/04/10 11:39:28;;;;;;;3.92;2.30;;;;;;;;;;5049535;28;20021;-74
2022/04/10 11:41:58;;;;;;;7.25;2.78;;;;;;;;;;5049771;28;20479;-74
2022/04/10 11:44:25;;;;;;;4.22;3.08;;;;;;;;;;5050231;28;20505;-74
2022/04/10 11:46:50;;;;;;;4.88;2.55;;;;;;;;;;5051385;28;20025;-74
2022/04/10 11:49:19;;;;;;;11.15;3.53;;;;;;;;;;5053577;28;20282;-73
2022/04/10 11:51:56;;;;;;;8.43;3.20;;;;;;;;;;5053812;28;20060;-72
2022/04/10 11:54:36;;;;;;;3.17;2.22;;;;;;;;;;5054002;28;20017;-73
2022/04/10 11:57:06;;;;;;;5.20;2.80;;;;;;;;;;5053509;28;20032;-74
2022/04/10 11:59:39;;;;;;;3.67;2.53;;;;;;;;;;5053612;28;20025;-74
2022/04/10 12:02:08;;;;;;;7.80;4.30;;;;;;;;;;5053093;28;20029;-73
2022/04/10 12:04:36;;;;;;;3.83;2.60;;;;;;;;;;5053469;28;20090;-74
2022/04/10 12:07:12;;;;;;;4.28;2.55;;;;;;;;;;5053156;28;20127;-72
2022/04/10 12:09:38;;;;;;;6.03;2.90;;;;;;;;;;5053083;28;20021;-74
2022/04/10 12:12:04;;;;;;;8.30;2.80;;;;;;;;;;5053060;28;20021;-74
2022/04/10 12:14:30;;;;;;;4.10;2.60;;;;;;;;;;5053092;28;20040;-73
2022/04/10 12:16:55;;;;;;;5.85;2.80;;;;;;;;;;5052988;28;20456;-72
2022/04/10 12:19:37;;;;;;;8.93;3.45;;;;;;;;;;5052924;28;20024;-73
2022/04/10 12:22:07;;;;;;;7.95;4.30;;;;;;;;;;5053179;28;20017;-71
2022/04/10 12:24:33;;;;;;;6.57;3.35;;;;;;;;;;5070874;28;20016;-72
2022/04/10 12:26:59;;;;;;;5.63;3.67;;;;;;;;;;5064637;28;20021;-73
2022/04/10 12:29:28;;;;;;;7.07;3.20;;;;;;;;;;5052846;28;20438;-74
2022/04/10 12:31:55;;;;;;;5.90;3.30;;;;;;;;;;5053085;28;20358;-75
2022/04/10 12:34:21;;;;;;;5.43;3.85;;;;;;;;;;5052770;28;20021;-74
2022/04/10 12:36:48;;;;;;;5.93;2.92;;;;;;;;;;5052692;28;20021;-75
2022/04/10 12:39:28;;;;;;;4.85;2.35;;;;;;;;;;5052792;28;20119;-74
2022/04/10 12:42:00;;;;;;;7.18;2.88;;;;;;;;;;5052515;28;20106;-75
2022/04/10 12:44:26;;;;;;;6.05;2.88;;;;;;;;;;5052738;28;20036;-75
2022/04/10 12:46:52;;;;;;;4.90;2.78;;;;;;;;;;5052528;28;20035;-74
2022/04/10 12:49:18;;;;;;;5.32;3.22;;;;;;;;;;5052276;28;20024;-74
2022/04/10 12:51:52;;;;;;;5.85;2.55;;;;;;;;;;5052148;28;20465;-74
2022/04/10 12:54:18;;;;;;;5.43;2.25;;;;;;;;;;5052157;28;20021;-74
2022/04/10 12:56:44;;;;;;;4.50;2.67;;;;;;;;;;5051977;28;20086;-74
2022/04/10 12:59:09;;;;;;;5.70;3.22;;;;;;;;;;5050809;28;20464;-74
2022/04/10 13:01:34;;;;;;;7.55;3.28;;;;;;;;;;5051715;28;20267;-74
2022/04/10 13:04:02;;;;;;;5.03;3.13;;;;;;;;;;5051941;28;20056;-74
2022/04/10 13:06:47;;;;;;;5.07;2.88;;;;;;;;;;5051949;28;20025;-74
2022/04/10 13:09:15;;;;;;;7.05;2.75;;;;;;;;;;5052019;28;20025;-74
2022/04/10 13:11:40;;;;;;;6.25;2.85;;;;;;;;;;5051969;28;20032;-74
2022/04/10 13:14:08;;;;;;;4.57;2.40;;;;;;;;;;5051918;28;20028;-74
2022/04/10 13:16:35;;;;;;;6.00;2.50;;;;;;;;;;5051553;28;20104;-74
2022/04/10 13:19:08;;;;;;;5.30;2.78;;;;;;;;;;5051751;28;20104;-74
2022/04/10 13:21:37;;;;;;;6.38;3.15;;;;;;;;;;5050650;28;20063;-74
2022/04/10 13:24:04;;;;;;;7.13;2.67;;;;;;;;;;5051841;28;20029;-74
2022/04/10 13:26:31;;;;;;;5.18;2.28;;;;;;;;;;5051612;28;20036;-74
2022/04/10 13:28:59;;;;;;;7.72;3.17;;;;;;;;;;5051667;28;20021;-74
2022/04/10 13:31:24;;;;;;;5.93;2.65;;;;;;;;;;5051440;28;20029;-74
2022/04/10 13:33:50;;;;;;;5.15;2.70;;;;;;;;;;5051737;28;20352;-74
2022/04/10 13:36:15;;;;;;;9.95;2.78;;;;;;;;;;5051536;28;20029;-75
2022/04/10 13:38:40;;;;;;;4.22;2.00;;;;;;;;;;5051027;28;20381;-74
2022/04/10 13:41:06;;;;;;;7.78;3.45;;;;;;;;;;5051175;28;20024;-73
2022/04/10 13:43:31;;;;;;;5.95;2.63;;;;;;;;;;5051416;28;20017;-74
2022/04/10 13:45:57;;;;;;;4.60;2.40;;;;;;;;;;5051270;28;20107;-73
2022/04/10 13:48:23;;;;;;;5.30;2.40;;;;;;;;;;5050646;28;20579;-73
2022/04/10 13:50:49;;;;;;;4.95;2.75;;;;;;;;;;5051172;28;20102;-73
2022/04/10 13:53:14;;;;;;;7.05;3.10;;;;;;;;;;5051120;28;20086;-74
2022/04/10 13:55:39;;;;;;;4.43;2.65;;;;;;;;;;5051181;28;20025;-74
2022/04/10 13:58:05;;;;;;;4.38;2.20;;;;;;;;;;5050702;28;20132;-74
2022/04/10 14:00:31;;;;;;;6.18;2.42;;;;;;;;;;5050913;28;20089;-73
2022/04/10 14:02:57;;;;;;;4.40;2.50;;;;;;;;;;5050766;28;20033;-74
2022/04/10 14:05:22;;;;;;;3.97;2.20;;;;;;;;;;5050917;28;20025;-74
2022/04/10 14:07:47;;;;;;;6.72;2.30;;;;;;;;;;5050842;28;20041;-74
2022/04/10 14:10:14;;;;;;;4.85;1.95;;;;;;;;;;5049572;28;20588;-74
2022/04/10 14:12:39;;;;;;;4.18;2.28;;;;;;;;;;5050738;28;20094;-74
2022/04/10 14:15:05;;;;;;;4.25;2.63;;;;;;;;;;5051115;28;20024;-74
2022/04/10 14:17:30;;;;;;;5.57;3.10;;;;;;;;;;5051540;28;20467;-74
2022/04/10 14:19:55;;;;;;;3.65;1.80;;;;;;;;;;5065861;28;20032;-74
2022/04/10 14:22:21;;;;;;;5.55;2.00;;;;;;;;;;5068662;28;20047;-74
2022/04/10 14:24:46;;;;;;;6.57;2.53;;;;;;;;;;5051938;28;20532;-74
2022/04/10 14:27:11;;;;;;;4.45;2.50;;;;;;;;;;5071760;22;20060;-73
2022/04/10 14:29:37;;;;;;;3.83;2.40;;;;;;;;;;5050363;28;20028;-73
2022/04/10 14:32:04;;;;;;;4.20;2.53;;;;;;;;;;5050389;28;20025;-75
2022/04/10 14:34:33;;;;;;;2.83;1.90;;;;;;;;;;5050767;28;20032;-75
2022/04/10 14:36:59;;;;;;;5.90;2.17;;;;;;;;;;5050467;28;20024;-74
2022/04/10 14:39:25;;;;;;;6.45;2.85;;;;;;;;;;5050412;28;20036;-75
2022/04/10 14:41:51;;;;;;;5.72;2.67;;;;;;;;;;5050519;28;20406;-75
2022/04/10 14:44:16;;;;;;;3.65;2.22;;;;;;;;;;5050335;28;20028;-75